This is the latest recevied weather packets stored in our database for station/object DH5WR-10. If no packets are shown the sender has not sent any weather packets the latest 10 day(s).
| Time | Temp. | Humidity | Pressure | Rain* | Wind** | Luminosity | Snow |
|---|---|---|---|---|---|---|---|
| 1777810945 | 25° C | 25% | 1015.4 hPa | - | - | - | - |
| 1777810041 | 25° C | 26% | 1015.4 hPa | - | - | - | - |
| 1777809141 | 24.44° C | 26% | 1015.6 hPa | - | - | - | - |
| 1777808240 | 23.89° C | 29% | 1015.7 hPa | - | - | - | - |
| 1777807340 | 23.89° C | 28% | 1015.8 hPa | - | - | - | - |
| 1777805540 | 22.78° C | 30% | 1016.2 hPa | - | - | - | - |
| 1777802842 | 21.67° C | 31% | 1016.7 hPa | - | - | - | - |
| 1777801939 | 21.67° C | 33% | 1016.9 hPa | - | - | - | - |
| 1777799243 | 21.11° C | 35% | 1017.2 hPa | - | - | - | - |
| 1777798339 | 21.11° C | 34% | 1017.2 hPa | - | - | - | - |
| 1777797438 | 20.56° C | 34% | 1017.4 hPa | - | - | - | - |
| 1777796542 | 20° C | 34% | 1017.4 hPa | - | - | - | - |
| 1777792938 | 18.33° C | 50% | 1017.5 hPa | - | - | - | - |
| 1777790236 | 16.67° C | 51% | 1017.5 hPa | - | - | - | - |
| 1777789336 | 16.67° C | 49% | 1017.4 hPa | - | - | - | - |
| 1777788435 | 15.56° C | 51% | 1017.4 hPa | - | - | - | - |
| 1777787535 | 16.67° C | 47% | 1017.4 hPa | - | - | - | - |
| 1777785750 | 11.11° C | 62% | 1017.4 hPa | - | - | - | - |
| 1777784850 | 10° C | 64% | 1017.4 hPa | - | - | - | - |
| 1777783950 | 9.44° C | 66% | 1017.5 hPa | - | - | - | - |
| 1777783050 | 8.89° C | 70% | 1017.5 hPa | - | - | - | - |
| 1777782150 | 8.33° C | 71% | 1017.3 hPa | - | - | - | - |
| 1777781250 | 7.78° C | 73% | 1017.3 hPa | - | - | - | - |
| 1777780349 | 8.89° C | 68% | 1017.3 hPa | - | - | - | - |
| 1777779449 | 8.89° C | 69% | 1017.3 hPa | - | - | - | - |
* Rain since midnight (hover to see other rain measurements)
** Current wind speed in m/s (hover to see current wind gust speed)